Time;durP1;ratioP1;P1;durP2;ratioP2;P2;SDS_P1;SDS_P2;PMS_P1;PMS_P2;Temp;Humidity;BMP_temperature;BMP_pressure;BME280_temperature;BME280_humidity;BME280_pressure;Samples;Min_cycle;Max_cycle;Signal;HPM_P1;HPM_P2
2021/10/14 00:02:16;;;;;;;16.42;6.68;;;13.20;99.90;;;;;;5067086;28;20039;-77
2021/10/14 00:04:43;;;;;;;14.32;6.50;;;13.20;99.90;;;;;;5068952;28;20047;-76
2021/10/14 00:07:08;;;;;;;9.90;5.90;;;13.20;99.90;;;;;;5071715;28;20488;-76
2021/10/14 00:09:34;;;;;;;10.18;6.60;;;13.20;99.90;;;;;;5068888;28;20020;-77
2021/10/14 00:11:59;;;;;;;12.73;7.05;;;13.10;99.90;;;;;;5070798;28;20070;-76
2021/10/14 00:14:25;;;;;;;16.13;7.68;;;13.10;99.90;;;;;;5071840;28;20020;-77
2021/10/14 00:16:52;;;;;;;14.18;7.55;;;13.10;99.90;;;;;;5073183;28;20035;-75
2021/10/14 00:19:18;;;;;;;16.17;7.80;;;13.10;99.90;;;;;;5066587;28;20021;-77
2021/10/14 00:21:43;;;;;;;14.68;7.47;;;13.00;99.90;;;;;;5068551;28;20440;-77
2021/10/14 00:24:09;;;;;;;17.40;8.85;;;13.10;99.90;;;;;;5067670;28;20032;-77
2021/10/14 00:26:35;;;;;;;18.63;8.40;;;13.00;99.90;;;;;;5068970;28;20028;-76
2021/10/14 00:29:00;;;;;;;19.15;8.40;;;13.00;99.90;;;;;;5061700;28;20040;-77
2021/10/14 00:31:26;;;;;;;18.85;8.63;;;13.00;99.90;;;;;;5065025;28;20035;-76
2021/10/14 00:33:52;;;;;;;18.20;9.25;;;13.10;99.90;;;;;;5061825;28;20152;-77
2021/10/14 00:36:17;;;;;;;17.88;9.32;;;13.10;99.90;;;;;;5064637;28;20381;-76
2021/10/14 00:38:43;;;;;;;14.93;10.30;;;13.10;99.90;;;;;;5072154;28;20027;-77
2021/10/14 00:41:09;;;;;;;20.27;10.35;;;13.10;99.90;;;;;;5072403;28;20108;-76
2021/10/14 00:43:34;;;;;;;18.05;11.75;;;13.10;99.90;;;;;;5074578;28;20023;-77
2021/10/14 00:46:00;;;;;;;23.65;11.75;;;13.10;99.90;;;;;;5065192;28;20021;-76
2021/10/14 00:48:25;;;;;;;25.58;13.30;;;13.10;99.90;;;;;;5065571;28;20020;-78
2021/10/14 00:50:51;;;;;;;20.63;12.85;;;13.00;99.90;;;;;;5066293;28;20036;-79
2021/10/14 00:53:17;;;;;;;23.33;13.15;;;13.10;99.90;;;;;;5074441;28;20028;-79
2021/10/14 00:55:43;;;;;;;29.40;15.10;;;13.00;99.90;;;;;;5066395;28;20078;-78
2021/10/14 00:58:09;;;;;;;31.58;16.35;;;13.10;99.90;;;;;;5059912;28;20021;-77
2021/10/14 01:00:34;;;;;;;28.02;14.90;;;13.00;99.90;;;;;;5067958;28;20091;-78
2021/10/14 01:03:01;;;;;;;32.78;16.30;;;13.10;99.90;;;;;;5071267;28;20028;-77
2021/10/14 01:05:27;;;;;;;30.17;15.07;;;13.00;99.90;;;;;;5075911;28;20034;-77
2021/10/14 01:07:52;;;;;;;31.25;17.33;;;13.00;99.90;;;;;;5057977;28;20489;-78
2021/10/14 01:10:18;;;;;;;30.23;15.73;;;13.10;99.90;;;;;;5069525;28;20027;-78
2021/10/14 01:12:46;;;;;;;29.67;16.08;;;13.10;99.90;;;;;;5061757;28;20037;-79
2021/10/14 01:15:24;;;;;;;28.02;16.17;;;13.10;99.90;;;;;;5070810;28;20078;-79
2021/10/14 01:17:50;;;;;;;28.85;16.13;;;13.10;99.90;;;;;;5060296;28;20052;-79
2021/10/14 01:20:16;;;;;;;29.65;15.70;;;13.10;99.90;;;;;;5069037;28;20530;-80
2021/10/14 01:22:42;;;;;;;32.20;17.45;;;13.10;99.90;;;;;;5061256;28;20048;-79
2021/10/14 01:25:08;;;;;;;28.63;17.20;;;13.10;99.90;;;;;;5069810;28;20102;-79
2021/10/14 01:27:34;;;;;;;29.73;16.45;;;13.10;99.90;;;;;;5066606;28;20567;-78
2021/10/14 01:30:00;;;;;;;41.58;28.90;;;13.00;99.90;;;;;;5062142;28;20028;-79
2021/10/14 01:32:26;;;;;;;30.85;17.75;;;13.00;99.90;;;;;;5063977;28;20065;-80
2021/10/14 01:34:51;;;;;;;35.35;17.80;;;12.90;99.90;;;;;;5066591;28;20032;-80
2021/10/14 01:37:17;;;;;;;28.08;17.90;;;12.80;99.90;;;;;;5070100;28;20472;-80
2021/10/14 01:39:42;;;;;;;37.85;20.58;;;12.90;99.90;;;;;;5070059;28;20093;-80
2021/10/14 01:42:08;;;;;;;32.53;18.30;;;12.90;99.90;;;;;;5072850;28;20086;-80
2021/10/14 01:44:34;;;;;;;39.53;18.92;;;13.00;99.90;;;;;;5060438;28;20033;-78
2021/10/14 01:46:59;;;;;;;37.50;17.88;;;13.00;99.90;;;;;;5060108;28;20039;-78
2021/10/14 01:49:25;;;;;;;33.15;21.50;;;12.90;99.90;;;;;;5066281;28;20016;-76
2021/10/14 01:51:50;;;;;;;36.17;19.30;;;12.90;99.90;;;;;;5064288;28;20037;-78
2021/10/14 01:54:17;;;;;;;32.92;19.50;;;12.90;99.90;;;;;;5065985;28;20020;-78
2021/10/14 01:56:42;;;;;;;27.30;17.25;;;12.90;99.90;;;;;;5064748;28;20501;-77
2021/10/14 01:59:08;;;;;;;37.88;19.05;;;12.90;99.90;;;;;;5068943;28;20032;-77
2021/10/14 02:01:34;;;;;;;30.40;19.52;;;12.90;99.90;;;;;;5068132;28;20024;-77
2021/10/14 02:03:59;;;;;;;32.92;18.63;;;12.80;99.90;;;;;;5068641;28;20028;-78
2021/10/14 02:06:25;;;;;;;30.73;18.88;;;12.80;99.90;;;;;;5068161;28;20476;-77
2021/10/14 02:08:51;;;;;;;37.15;20.38;;;12.80;99.90;;;;;;5063044;28;20032;-79
2021/10/14 02:11:16;;;;;;;31.35;18.85;;;12.80;99.90;;;;;;5068819;28;20471;-77
2021/10/14 02:13:42;;;;;;;37.65;20.38;;;12.80;99.90;;;;;;5070182;28;20047;-77
2021/10/14 02:16:07;;;;;;;41.28;21.88;;;12.80;99.90;;;;;;5066066;28;20096;-77
2021/10/14 02:18:34;;;;;;;43.47;30.60;;;12.70;99.90;;;;;;5070140;28;20025;-76
2021/10/14 02:20:59;;;;;;;42.00;23.20;;;12.60;99.90;;;;;;5069359;28;20503;-76
2021/10/14 02:23:25;;;;;;;40.92;23.02;;;12.70;99.90;;;;;;5067817;28;20024;-76
2021/10/14 02:25:50;;;;;;;48.40;24.50;;;12.70;99.90;;;;;;5069281;28;20022;-75
2021/10/14 02:28:16;;;;;;;36.83;21.38;;;12.70;99.90;;;;;;5060977;28;20033;-75
2021/10/14 02:30:41;;;;;;;42.55;23.27;;;12.70;99.90;;;;;;5060625;28;20060;-75
2021/10/14 02:33:09;;;;;;;45.03;25.05;;;12.70;99.90;;;;;;5064483;28;20413;-78
2021/10/14 02:35:34;;;;;;;42.30;24.73;;;12.70;99.90;;;;;;5067681;28;20031;-75
2021/10/14 02:38:00;;;;;;;42.05;25.60;;;12.80;99.90;;;;;;5068989;28;20503;-75
2021/10/14 02:40:25;;;;;;;37.40;22.92;;;12.80;99.90;;;;;;5070173;28;20025;-78
2021/10/14 02:42:51;;;;;;;44.67;26.08;;;12.70;99.90;;;;;;5073045;28;20069;-77
2021/10/14 02:45:17;;;;;;;44.50;24.80;;;12.80;99.90;;;;;;5059506;28;20051;-77
2021/10/14 02:47:43;;;;;;;40.80;25.10;;;12.70;99.90;;;;;;5063434;28;20107;-78
2021/10/14 02:50:08;;;;;;;43.70;25.30;;;12.70;99.90;;;;;;5059062;28;20074;-78
2021/10/14 02:52:34;;;;;;;41.47;24.67;;;12.60;99.90;;;;;;5063971;28;20040;-77
2021/10/14 02:55:00;;;;;;;48.92;26.00;;;12.60;99.90;;;;;;5064322;28;20393;-78
2021/10/14 02:57:26;;;;;;;39.22;23.90;;;12.70;99.90;;;;;;5064097;28;20107;-78
2021/10/14 02:59:51;;;;;;;45.90;24.95;;;12.70;99.90;;;;;;5065265;28;20040;-78
2021/10/14 03:02:17;;;;;;;39.80;22.33;;;12.80;99.90;;;;;;5059599;28;20752;-78
2021/10/14 03:04:43;;;;;;;40.67;23.00;;;12.80;99.90;;;;;;5063593;28;20074;-78
2021/10/14 03:07:08;;;;;;;41.88;23.48;;;12.90;99.90;;;;;;5061688;28;20025;-83
2021/10/14 03:09:34;;;;;;;39.30;20.83;;;12.90;99.90;;;;;;5061303;28;20070;-78
2021/10/14 03:11:59;;;;;;;33.97;21.35;;;12.90;99.90;;;;;;5062067;28;20036;-78
2021/10/14 03:14:25;;;;;;;35.10;18.92;;;12.90;99.90;;;;;;5063741;28;20025;-78
2021/10/14 03:16:51;;;;;;;31.17;16.85;;;12.90;99.90;;;;;;5065486;28;20537;-78
2021/10/14 03:19:16;;;;;;;30.52;19.00;;;12.80;99.90;;;;;;5062350;28;20432;-78
2021/10/14 03:21:42;;;;;;;29.15;15.85;;;12.90;99.90;;;;;;5062476;28;20028;-78
2021/10/14 03:24:08;;;;;;;28.00;15.55;;;12.90;99.90;;;;;;5065307;28;20024;-78
2021/10/14 03:26:33;;;;;;;24.88;15.45;;;12.90;99.90;;;;;;5066580;28;20032;-78
2021/10/14 03:28:59;;;;;;;33.70;15.27;;;12.90;99.90;;;;;;5060411;28;20454;-78
2021/10/14 03:31:25;;;;;;;22.92;14.52;;;12.90;99.90;;;;;;5063817;28;20032;-78
2021/10/14 03:33:50;;;;;;;27.75;14.80;;;12.90;99.90;;;;;;5067836;28;20025;-78
2021/10/14 03:36:16;;;;;;;26.20;12.73;;;13.00;99.90;;;;;;5067416;28;20103;-78
2021/10/14 03:38:42;;;;;;;23.30;12.13;;;13.00;99.90;;;;;;5067249;28;20024;-78
2021/10/14 03:41:07;;;;;;;22.45;12.63;;;12.90;99.90;;;;;;5063873;28;20092;-78
2021/10/14 03:43:33;;;;;;;27.25;13.95;;;12.90;99.90;;;;;;5065745;28;20547;-78
2021/10/14 03:45:59;;;;;;;22.73;13.18;;;12.90;99.90;;;;;;5071777;28;20025;-78
2021/10/14 03:48:24;;;;;;;23.10;11.80;;;12.90;99.90;;;;;;5064168;28;20028;-78
2021/10/14 03:50:50;;;;;;;22.67;12.00;;;12.90;99.90;;;;;;5066637;28;20100;-78
2021/10/14 03:53:16;;;;;;;27.63;13.90;;;12.90;99.90;;;;;;5062879;28;20059;-77
2021/10/14 03:55:41;;;;;;;24.27;13.45;;;12.90;99.90;;;;;;5060731;28;20140;-78
2021/10/14 03:58:08;;;;;;;26.45;13.25;;;12.90;99.90;;;;;;5066850;28;20042;-78
2021/10/14 04:00:33;;;;;;;17.25;11.88;;;12.70;99.90;;;;;;5060509;28;20025;-82
2021/10/14 04:02:59;;;;;;;24.23;12.40;;;12.70;99.90;;;;;;5065282;28;20019;-81
2021/10/14 04:05:24;;;;;;;26.92;13.80;;;12.80;99.90;;;;;;5066372;28;20024;-81
2021/10/14 04:07:50;;;;;;;23.63;12.88;;;12.80;99.90;;;;;;5061818;28;20071;-81
2021/10/14 04:10:16;;;;;;;25.95;11.52;;;12.80;99.90;;;;;;5065838;28;20474;-81
2021/10/14 04:12:42;;;;;;;23.17;12.35;;;12.90;99.90;;;;;;5064412;28;20044;-81
2021/10/14 04:15:08;;;;;;;20.10;10.02;;;12.80;99.90;;;;;;5068907;28;20398;-81
2021/10/14 04:17:34;;;;;;;19.45;11.73;;;12.80;99.90;;;;;;5064060;28;20105;-81
2021/10/14 04:20:00;;;;;;;19.42;11.93;;;12.80;99.90;;;;;;5066329;28;20016;-81
2021/10/14 04:22:27;;;;;;;21.42;10.98;;;12.80;99.90;;;;;;5065938;28;20027;-81
2021/10/14 04:24:53;;;;;;;21.42;13.07;;;12.80;99.90;;;;;;5070272;28;20495;-81
2021/10/14 04:27:19;;;;;;;19.45;11.13;;;12.80;99.90;;;;;;5062585;28;20072;-78
2021/10/14 04:29:44;;;;;;;18.40;10.43;;;12.80;99.90;;;;;;5066424;28;20054;-81
2021/10/14 04:32:11;;;;;;;25.23;11.93;;;12.80;99.90;;;;;;5061426;28;21098;-81
2021/10/14 04:34:38;;;;;;;25.65;12.27;;;12.80;99.90;;;;;;5062965;28;20074;-81
2021/10/14 04:37:07;;;;;;;22.33;11.27;;;12.90;99.90;;;;;;5064406;28;20032;-81
2021/10/14 04:39:37;;;;;;;22.30;10.60;;;12.90;99.90;;;;;;5069375;28;20047;-81
2021/10/14 04:42:04;;;;;;;20.67;10.85;;;12.90;99.90;;;;;;5064301;28;20025;-81
2021/10/14 04:44:30;;;;;;;18.15;11.18;;;12.90;99.90;;;;;;5064901;28;20023;-81
2021/10/14 04:46:56;;;;;;;20.92;10.25;;;12.90;99.90;;;;;;5063784;28;20032;-81
2021/10/14 04:49:22;;;;;;;19.75;10.32;;;12.90;99.90;;;;;;5066157;28;20021;-80
2021/10/14 04:51:47;;;;;;;21.98;10.63;;;12.90;99.90;;;;;;5061027;28;20033;-80
2021/10/14 04:54:13;;;;;;;24.25;9.82;;;12.90;99.90;;;;;;5064572;28;20033;-80
2021/10/14 04:56:39;;;;;;;21.48;10.02;;;12.80;99.90;;;;;;5068597;28;20496;-80
2021/10/14 04:59:04;;;;;;;21.02;11.40;;;12.90;99.90;;;;;;5060904;28;20111;-81
2021/10/14 05:01:30;;;;;;;17.85;10.52;;;13.00;99.90;;;;;;5063471;28;20032;-81
2021/10/14 05:03:55;;;;;;;17.88;9.65;;;13.00;99.90;;;;;;5061982;28;20025;-81
2021/10/14 05:06:21;;;;;;;16.92;10.23;;;12.90;99.90;;;;;;5068427;28;20025;-81
2021/10/14 05:08:47;;;;;;;15.70;9.85;;;13.00;99.90;;;;;;5069005;28;20028;-80
2021/10/14 05:11:13;;;;;;;20.83;9.85;;;12.90;99.90;;;;;;5061019;28;20461;-78
2021/10/14 05:13:40;;;;;;;16.83;10.00;;;12.90;99.90;;;;;;5068783;28;20029;-80
2021/10/14 05:16:06;;;;;;;17.40;10.68;;;12.90;99.90;;;;;;5066144;28;20492;-80
2021/10/14 05:18:32;;;;;;;16.13;10.68;;;12.90;99.90;;;;;;5065379;28;20040;-81
2021/10/14 05:20:58;;;;;;;20.92;10.02;;;12.90;99.90;;;;;;5079727;28;20485;-81
2021/10/14 05:23:24;;;;;;;17.38;10.90;;;12.90;99.90;;;;;;5068918;28;20028;-81
2021/10/14 05:25:49;;;;;;;26.90;12.20;;;12.80;99.90;;;;;;5075392;28;20035;-79
2021/10/14 05:28:16;;;;;;;20.63;10.63;;;12.80;99.90;;;;;;5063506;28;20061;-81
2021/10/14 05:30:42;;;;;;;20.45;10.15;;;12.80;99.90;;;;;;5059547;28;20028;-81
2021/10/14 05:33:07;;;;;;;23.52;10.88;;;12.80;99.90;;;;;;5063927;28;20033;-81
2021/10/14 05:35:33;;;;;;;22.77;11.27;;;12.80;99.90;;;;;;5071455;28;20021;-81
2021/10/14 05:37:59;;;;;;;26.48;11.77;;;12.80;99.90;;;;;;5064432;28;20028;-79
2021/10/14 05:40:24;;;;;;;21.42;11.80;;;12.80;99.90;;;;;;5064257;28;20016;-81
2021/10/14 05:42:50;;;;;;;22.90;11.27;;;12.80;99.90;;;;;;5061946;28;20037;-80
2021/10/14 05:45:16;;;;;;;24.02;12.65;;;12.80;99.90;;;;;;5067405;28;20017;-80
2021/10/14 05:47:41;;;;;;;20.48;10.43;;;12.80;99.90;;;;;;5062918;28;20036;-80
2021/10/14 05:50:07;;;;;;;18.30;11.13;;;12.90;99.90;;;;;;5066364;28;20493;-80
2021/10/14 05:52:33;;;;;;;23.02;12.23;;;12.90;99.90;;;;;;5063519;28;20036;-80
2021/10/14 05:54:59;;;;;;;20.80;10.63;;;12.80;99.90;;;;;;5069581;28;20423;-81
2021/10/14 05:57:27;;;;;;;18.98;11.65;;;12.80;99.90;;;;;;5060998;28;20468;-79
2021/10/14 05:59:52;;;;;;;21.23;11.93;;;12.90;99.90;;;;;;5061499;28;20098;-80
2021/10/14 06:02:18;;;;;;;19.95;11.82;;;12.90;99.90;;;;;;5059199;28;20424;-80
2021/10/14 06:04:43;;;;;;;19.80;11.52;;;12.90;99.90;;;;;;5066228;28;20021;-80
2021/10/14 06:07:09;;;;;;;21.08;10.60;;;12.90;99.90;;;;;;5063463;28;20028;-80
2021/10/14 06:09:35;;;;;;;20.73;12.10;;;12.90;99.90;;;;;;5059679;28;20025;-80
2021/10/14 06:12:00;;;;;;;22.45;12.10;;;12.90;99.90;;;;;;5067846;28;20086;-80
2021/10/14 06:14:26;;;;;;;26.63;12.05;;;13.00;99.90;;;;;;5066231;28;20489;-80
2021/10/14 06:16:52;;;;;;;22.30;11.82;;;12.90;99.90;;;;;;5064717;28;20194;-79
2021/10/14 06:19:17;;;;;;;20.20;12.00;;;13.00;99.90;;;;;;5067534;28;20025;-84
2021/10/14 06:21:43;;;;;;;27.15;12.95;;;13.00;99.90;;;;;;5063537;28;20092;-81
2021/10/14 06:24:10;;;;;;;24.67;14.00;;;13.00;99.90;;;;;;5060385;28;20542;-79
2021/10/14 06:26:36;;;;;;;24.98;13.00;;;13.00;99.90;;;;;;5067612;28;20388;-80
2021/10/14 06:29:01;;;;;;;20.90;12.32;;;13.00;99.90;;;;;;5066318;28;20043;-79
2021/10/14 06:31:27;;;;;;;20.48;11.45;;;13.00;99.90;;;;;;5059777;28;20033;-79
2021/10/14 06:33:52;;;;;;;26.10;12.85;;;13.10;99.90;;;;;;5067833;28;20488;-79
2021/10/14 06:36:18;;;;;;;27.73;14.63;;;13.00;99.90;;;;;;5059203;28;20021;-80
2021/10/14 06:38:44;;;;;;;25.80;12.88;;;13.00;99.90;;;;;;5062881;28;20028;-80
2021/10/14 06:41:09;;;;;;;23.35;13.38;;;13.00;99.90;;;;;;5067419;28;20477;-81
2021/10/14 06:43:35;;;;;;;21.98;12.20;;;13.00;99.90;;;;;;5063957;28;20357;-79
2021/10/14 06:46:01;;;;;;;27.63;15.00;;;13.10;99.90;;;;;;5077545;28;20077;-79
2021/10/14 06:48:26;;;;;;;29.52;14.15;;;13.00;99.90;;;;;;5071148;28;20025;-80
2021/10/14 06:50:52;;;;;;;28.17;14.02;;;13.10;99.90;;;;;;5063067;28;20554;-80
2021/10/14 06:53:18;;;;;;;27.70;14.55;;;13.10;99.90;;;;;;5062683;28;20029;-79
2021/10/14 06:55:43;;;;;;;28.60;15.27;;;13.10;99.90;;;;;;5069894;28;20032;-79
2021/10/14 06:58:09;;;;;;;28.38;15.68;;;13.10;99.90;;;;;;5068432;28;20391;-79
2021/10/14 07:00:35;;;;;;;34.22;16.35;;;13.10;99.90;;;;;;5045813;28;20108;-79
2021/10/14 07:03:00;;;;;;;22.25;14.00;;;13.10;99.90;;;;;;5067683;28;20032;-79
2021/10/14 07:05:26;;;;;;;26.13;15.25;;;13.00;99.90;;;;;;5069336;28;20079;-79
2021/10/14 07:07:52;;;;;;;25.98;14.13;;;13.10;99.90;;;;;;5067120;28;20115;-80
2021/10/14 07:10:17;;;;;;;28.15;14.73;;;13.00;99.90;;;;;;5068043;28;20357;-77
2021/10/14 07:12:43;;;;;;;29.58;16.15;;;13.10;99.90;;;;;;5065562;28;20051;-80
2021/10/14 07:15:09;;;;;;;28.10;15.43;;;13.10;99.90;;;;;;5069172;28;20020;-77
2021/10/14 07:17:36;;;;;;;27.55;16.40;;;13.20;99.90;;;;;;5066868;28;20032;-79
2021/10/14 07:20:04;;;;;;;29.73;17.60;;;13.20;99.90;;;;;;5072445;28;20016;-80
2021/10/14 07:22:30;;;;;;;26.73;16.95;;;13.20;99.90;;;;;;5061801;28;20025;-79
2021/10/14 07:24:55;;;;;;;31.20;15.82;;;13.10;99.90;;;;;;5068109;28;20024;-79
2021/10/14 07:27:21;;;;;;;26.73;16.58;;;13.10;99.90;;;;;;5066972;28;20503;-79
2021/10/14 07:29:47;;;;;;;29.38;15.52;;;13.20;99.90;;;;;;5070710;28;20377;-78
2021/10/14 07:32:12;;;;;;;29.95;17.05;;;13.20;99.90;;;;;;5069246;28;20047;-78
2021/10/14 07:34:38;;;;;;;32.10;18.27;;;13.20;99.90;;;;;;5065307;28;20027;-79
2021/10/14 07:37:06;;;;;;;30.55;16.77;;;13.10;99.90;;;;;;5067706;28;20117;-79
2021/10/14 07:39:33;;;;;;;26.95;15.82;;;13.20;99.90;;;;;;5075227;28;20507;-79
2021/10/14 07:41:58;;;;;;;28.90;16.67;;;13.20;99.90;;;;;;5071367;28;20072;-78
2021/10/14 07:44:24;;;;;;;32.67;17.25;;;13.30;99.90;;;;;;5064811;28;20469;-79
2021/10/14 07:46:50;;;;;;;31.73;15.82;;;13.20;99.90;;;;;;5067170;28;20481;-78
2021/10/14 07:49:17;;;;;;;30.58;16.90;;;13.20;99.90;;;;;;5071481;28;20031;-79
2021/10/14 07:51:43;;;;;;;26.02;16.00;;;13.30;99.90;;;;;;5068332;28;20481;-79
2021/10/14 07:54:08;;;;;;;27.00;15.65;;;13.30;99.90;;;;;;5064431;28;20021;-78
2021/10/14 07:56:34;;;;;;;23.85;15.90;;;13.30;99.90;;;;;;5064648;28;20479;-78
2021/10/14 07:59:00;;;;;;;32.63;16.02;;;13.20;99.90;;;;;;5066438;28;20028;-78
2021/10/14 08:01:26;;;;;;;24.90;14.73;;;13.30;99.90;;;;;;5065518;28;20111;-78
2021/10/14 08:03:51;;;;;;;32.28;16.42;;;13.30;99.90;;;;;;5061579;28;20033;-80
2021/10/14 08:06:17;;;;;;;25.48;14.75;;;13.30;99.90;;;;;;5060084;28;20019;-80
2021/10/14 08:08:43;;;;;;;34.17;15.50;;;13.30;99.90;;;;;;5062723;28;20415;-80
2021/10/14 08:11:09;;;;;;;26.15;14.80;;;13.30;99.90;;;;;;5061085;28;20029;-80
2021/10/14 08:13:35;;;;;;;24.40;14.68;;;13.30;99.90;;;;;;5056953;28;20389;-80
2021/10/14 08:16:03;;;;;;;25.38;14.35;;;13.30;99.90;;;;;;5064091;28;20373;-79
2021/10/14 08:18:29;;;;;;;29.48;15.75;;;13.40;99.90;;;;;;5070800;28;20025;-79
2021/10/14 08:20:56;;;;;;;26.00;14.60;;;13.30;99.90;;;;;;5066234;28;20366;-79
2021/10/14 08:23:23;;;;;;;27.92;13.80;;;13.30;99.90;;;;;;5071419;28;20032;-81
2021/10/14 08:25:49;;;;;;;26.30;14.50;;;13.30;99.90;;;;;;5066844;28;20037;-78
2021/10/14 08:28:16;;;;;;;25.63;13.43;;;13.30;99.90;;;;;;5063292;28;20377;-79
2021/10/14 08:30:42;;;;;;;24.02;14.60;;;13.40;99.90;;;;;;5064613;28;20130;-80
2021/10/14 08:33:09;;;;;;;27.52;15.05;;;13.40;99.90;;;;;;5069689;28;20043;-79
2021/10/14 08:35:37;;;;;;;27.45;16.27;;;13.40;99.90;;;;;;5068110;28;20020;-80
2021/10/14 08:38:05;;;;;;;24.35;14.60;;;13.40;99.90;;;;;;5065017;28;20035;-79
2021/10/14 08:40:31;;;;;;;25.05;13.95;;;13.40;99.90;;;;;;5071245;28;20028;-80
2021/10/14 08:43:04;;;;;;;28.27;14.55;;;13.40;99.90;;;;;;5060395;28;20017;-80
2021/10/14 08:45:33;;;;;;;25.88;14.30;;;13.40;99.90;;;;;;5067650;28;20032;-81
2021/10/14 08:48:00;;;;;;;21.85;14.45;;;13.50;99.90;;;;;;5059248;28;20424;-80
2021/10/14 08:50:26;;;;;;;24.27;14.43;;;13.60;99.90;;;;;;5065886;28;20113;-80
2021/10/14 08:52:51;;;;;;;29.02;14.48;;;13.60;99.90;;;;;;5067574;28;20483;-80
2021/10/14 08:55:17;;;;;;;27.65;13.77;;;13.60;99.90;;;;;;5067570;28;20029;-80
2021/10/14 08:57:43;;;;;;;32.10;13.48;;;13.60;99.90;;;;;;5066961;28;20088;-79
2021/10/14 09:00:09;;;;;;;25.00;14.07;;;13.60;99.90;;;;;;5061978;28;20051;-80
2021/10/14 09:02:34;;;;;;;22.40;12.93;;;13.70;99.90;;;;;;5062458;28;20028;-79
2021/10/14 09:05:06;;;;;;;23.48;15.50;;;13.80;99.90;;;;;;5063178;28;20024;-78
2021/10/14 09:07:32;;;;;;;25.55;13.75;;;13.80;99.90;;;;;;5063548;28;20032;-78
2021/10/14 09:10:01;;;;;;;32.88;13.43;;;13.80;99.90;;;;;;5061843;28;20032;-79
2021/10/14 09:12:33;;;;;;;21.50;13.40;;;13.80;99.90;;;;;;5062917;28;20123;-80
2021/10/14 09:15:16;;;;;;;26.88;15.13;;;13.80;99.90;;;;;;5063055;28;20035;-80
2021/10/14 09:17:42;;;;;;;;;;;13.80;99.90;;;;;;5069693;28;20028;-77
2021/10/14 09:20:28;;;;;;;28.30;13.95;;;13.90;99.90;;;;;;5068452;28;20443;-77
2021/10/14 09:23:04;;;;;;;26.30;14.88;;;14.00;99.90;;;;;;5071222;28;20036;-77
2021/10/14 09:25:37;;;;;;;26.92;15.55;;;14.00;99.90;;;;;;5067913;28;20024;-77
2021/10/14 09:28:29;;;;;;;25.83;14.60;;;14.00;99.90;;;;;;5065590;28;20037;-78
2021/10/14 09:31:02;;;;;;;31.70;15.75;;;14.00;99.90;;;;;;5063698;28;20403;-77
2021/10/14 09:33:28;;;;;;;28.00;15.63;;;14.10;99.90;;;;;;5065963;28;20071;-78
2021/10/14 09:35:53;;;;;;;27.88;15.73;;;14.10;99.90;;;;;;5067953;28;20025;-78
2021/10/14 09:38:34;;;;;;;28.55;16.98;;;14.20;99.90;;;;;;5068103;28;20083;-77
2021/10/14 09:41:02;;;;;;;28.73;17.25;;;14.20;99.90;;;;;;5061522;28;20025;-77
2021/10/14 09:43:27;;;;;;;32.60;16.83;;;14.30;99.90;;;;;;5060364;28;20033;-77
2021/10/14 09:45:53;;;;;;;29.65;17.40;;;14.40;99.90;;;;;;5057691;28;20511;-78
2021/10/14 09:48:19;;;;;;;29.80;16.00;;;14.40;99.90;;;;;;5059325;28;20116;-77
2021/10/14 09:50:46;;;;;;;27.58;17.58;;;14.50;99.90;;;;;;5063215;28;20392;-77
2021/10/14 09:53:17;;;;;;;34.97;19.48;;;14.50;99.90;;;;;;5066149;28;20033;-77
2021/10/14 09:55:44;;;;;;;31.70;18.67;;;14.60;99.90;;;;;;5067247;28;20077;-77
2021/10/14 09:58:11;;;;;;;33.38;19.25;;;14.60;99.90;;;;;;5059980;28;20031;-78
2021/10/14 10:00:38;;;;;;;32.05;19.05;;;14.70;99.90;;;;;;5063212;28;20027;-77
2021/10/14 10:03:05;;;;;;;28.85;19.48;;;14.80;99.90;;;;;;5065766;28;20028;-77
2021/10/14 10:05:32;;;;;;;31.48;18.63;;;14.80;99.90;;;;;;5058846;28;20044;-78
2021/10/14 10:08:03;;;;;;;31.73;18.45;;;14.90;99.90;;;;;;5057439;28;20385;-77
2021/10/14 10:10:30;;;;;;;30.23;19.15;;;15.00;99.90;;;;;;5060623;28;20439;-78
2021/10/14 10:13:00;;;;;;;29.35;17.88;;;15.00;99.90;;;;;;5066337;28;20040;-77
2021/10/14 10:15:46;;;;;;;33.10;19.65;;;15.10;99.90;;;;;;5061899;28;20116;-75
2021/10/14 10:18:27;;;;;;;32.30;18.58;;;15.20;99.90;;;;;;5067166;28;20019;-74
2021/10/14 10:20:54;;;;;;;33.80;18.02;;;15.20;99.90;;;;;;5068525;28;20028;-75
2021/10/14 10:23:41;;;;;;;28.17;18.15;;;15.30;99.90;;;;;;5067010;28;20016;-76
2021/10/14 10:26:26;;;;;;;31.80;18.70;;;15.30;99.90;;;;;;5065849;28;20040;-76
2021/10/14 10:28:52;;;;;;;30.25;18.90;;;15.40;99.90;;;;;;5060670;28;20032;-76
2021/10/14 10:31:18;;;;;;;28.58;18.23;;;15.50;99.90;;;;;;5065470;28;20021;-75
2021/10/14 10:33:53;;;;;;;30.25;16.48;;;15.50;99.90;;;;;;5065625;28;20079;-75
2021/10/14 10:36:52;;;;;;;26.60;16.27;;;15.50;99.90;;;;;;5061684;28;20016;-75
2021/10/14 10:39:45;;;;;;;26.25;16.40;;;15.60;99.90;;;;;;5081651;28;20045;-75
2021/10/14 10:42:15;;;;;;;23.80;16.48;;;15.60;99.90;;;;;;5067828;28;20473;-74
2021/10/14 10:44:42;;;;;;;30.08;16.52;;;15.70;99.90;;;;;;5060451;28;20024;-75
2021/10/14 10:47:37;;;;;;;24.05;14.82;;;15.60;99.90;;;;;;5064601;28;20095;-75
2021/10/14 10:50:04;;;;;;;28.42;16.15;;;15.70;99.90;;;;;;5057888;28;20048;-74
2021/10/14 10:52:38;;;;;;;26.88;16.75;;;15.70;99.90;;;;;;5067332;28;20037;-75
2021/10/14 10:55:24;;;;;;;30.92;15.95;;;15.70;99.90;;;;;;5058216;28;20079;-74
2021/10/14 10:57:51;;;;;;;25.55;16.50;;;15.80;99.90;;;;;;5062627;28;20053;-74
2021/10/14 11:00:18;;;;;;;27.40;16.88;;;15.80;99.90;;;;;;5063995;28;20021;-75
2021/10/14 11:02:44;;;;;;;29.92;17.08;;;15.90;99.90;;;;;;5060836;28;20039;-75
2021/10/14 11:05:11;;;;;;;22.50;15.00;;;15.80;99.90;;;;;;5063471;28;20035;-75
2021/10/14 11:07:37;;;;;;;27.17;14.20;;;15.80;99.90;;;;;;5066743;28;20546;-74
2021/10/14 11:10:05;;;;;;;30.17;15.68;;;15.90;99.90;;;;;;5069343;28;20025;-75
2021/10/14 11:12:31;;;;;;;25.70;14.50;;;15.90;99.90;;;;;;5071949;28;20377;-75
2021/10/14 11:14:56;;;;;;;21.10;13.75;;;15.90;99.90;;;;;;5069931;28;20025;-75
2021/10/14 11:17:26;;;;;;;21.02;14.50;;;16.00;99.90;;;;;;5060232;28;20109;-74
2021/10/14 11:20:05;;;;;;;19.23;13.27;;;16.00;99.90;;;;;;5067175;28;20033;-75
2021/10/14 11:22:31;;;;;;;22.45;14.70;;;16.10;99.90;;;;;;5062194;28;20502;-74
2021/10/14 11:25:03;;;;;;;27.58;13.90;;;16.10;99.90;;;;;;5070599;28;20096;-75
2021/10/14 11:27:29;;;;;;;21.10;13.23;;;16.20;99.90;;;;;;5065783;28;20044;-76
2021/10/14 11:30:17;;;;;;;17.67;11.98;;;16.20;99.90;;;;;;5061490;28;20447;-75
2021/10/14 11:32:57;;;;;;;21.42;11.45;;;16.30;99.90;;;;;;5070377;28;20040;-75
2021/10/14 11:35:23;;;;;;;22.30;14.27;;;16.40;99.90;;;;;;5066557;28;20082;-75
2021/10/14 11:37:49;;;;;;;21.92;13.55;;;16.30;99.90;;;;;;5063454;28;20031;-75
2021/10/14 11:40:35;;;;;;;17.52;12.40;;;16.20;99.90;;;;;;5063435;28;20024;-75
2021/10/14 11:43:01;;;;;;;22.67;11.80;;;16.20;99.90;;;;;;5062894;28;20025;-76
2021/10/14 11:45:27;;;;;;;23.17;12.75;;;16.30;99.90;;;;;;5067032;28;20070;-76
2021/10/14 11:47:52;;;;;;;18.92;12.80;;;16.40;99.90;;;;;;5068355;28;20025;-76
2021/10/14 11:50:24;;;;;;;19.80;12.48;;;16.40;99.90;;;;;;5067865;28;20017;-76
2021/10/14 11:53:03;;;;;;;19.80;12.65;;;16.50;99.90;;;;;;5068251;28;20036;-75
2021/10/14 11:55:30;;;;;;;19.38;10.63;;;16.50;99.90;;;;;;5069012;28;20036;-75
2021/10/14 11:58:03;;;;;;;17.08;11.52;;;16.60;99.90;;;;;;5070343;28;20131;-75
2021/10/14 12:00:31;;;;;;;14.57;10.25;;;16.60;99.90;;;;;;5070574;28;20027;-76
2021/10/14 12:02:57;;;;;;;15.10;10.65;;;16.70;99.90;;;;;;5072601;28;20021;-76
2021/10/14 12:05:24;;;;;;;15.30;9.93;;;16.70;99.90;;;;;;5071026;28;20051;-76
2021/10/14 12:07:53;;;;;;;14.05;10.40;;;16.70;99.90;;;;;;5069196;28;20033;-75
2021/10/14 12:10:37;;;;;;;14.48;9.55;;;16.70;99.90;;;;;;5071912;28;20029;-75
2021/10/14 12:13:04;;;;;;;14.27;8.85;;;16.70;99.90;;;;;;5058251;28;20031;-75
2021/10/14 12:15:31;;;;;;;16.23;10.30;;;16.80;99.90;;;;;;5065965;28;20361;-75
2021/10/14 12:17:56;;;;;;;14.60;8.95;;;16.80;99.90;;;;;;5070583;28;20025;-75
2021/10/14 12:20:24;;;;;;;13.15;9.27;;;16.80;99.90;;;;;;5069924;28;20020;-75
2021/10/14 12:22:52;;;;;;;14.73;8.57;;;16.80;99.90;;;;;;5073275;28;20023;-75
2021/10/14 12:25:22;;;;;;;12.88;8.60;;;16.90;99.90;;;;;;5057484;28;20013;-76
2021/10/14 12:27:53;;;;;;;19.65;9.15;;;16.90;99.90;;;;;;5067568;28;20044;-75
2021/10/14 12:30:35;;;;;;;11.23;8.13;;;16.90;99.90;;;;;;5061811;28;20468;-75